首页
METAR-TAF:

METAR-TAF

机场 :

麥爾茲堡, 佛罗里达州, 美国

纬度: 26-35-03N, 经度: 081-51-45W, 海拔: 5米

当前天气观测

该预报发布于1小时和5分钟前的04:53 UTC
静风
温度 28°C
湿度 84%
气压 1015 hPa
能見度: 16.1公里
多云层高于4700英尺
多云层高于5500英尺

METAR: KFMY 040453Z AUTO 00000KT 10SM BKN047 BKN055 28/25 A2996 RMK AO2 SLP146 T02780250 403330250

时间: 01:58 (05:58 UTC)

预报

该预报发布于22分钟前的05:36 UTC
预报有效从04日的 06点(UTC)到 05日的 06点(UTC)
风速4节,风向多变
能見度: 10公里
少量云层高于4000英尺
散云层高于25000英尺
从 04日的 1200点(UTC)
风速4节,风向多变
能見度: 10公里
散云层高于2500英尺
散云层高于25000英尺
附近有阵雨
从 04日的 1600点(UTC)
风速7节,风向西
能見度: 10公里
散云层高于2500英尺, 积雨云.
散云层高于10000英尺
多云层高于25000英尺
附近有雷暴
从 04日的 2300点(UTC)
风速7节,风向西
能見度: 10公里
少量云层高于2500英尺
多云层高于25000英尺
从 05日的 0300点(UTC)
风速4节,风向多变
能見度: 10公里
散云层高于25000英尺

TAF: KFMY 040536Z 0406/0506 VRB04KT P6SM FEW040 SCT250 FM041200 VRB04KT P6SM VCSH SCT025 SCT250 FM041600 26007KT P6SM VCTS SCT025CB SCT100 BKN250 FM042300 27007KT P6SM FEW025 BKN250 FM050300 VRB04KT P6SM SCT250

超过4000个机场的气象观测和天气预报(METAR&TAF报告)。

可查询的气象台以黄色和红色小点在地图上表示。

将鼠标移到小点上方,可查看气象台名称。

然后点击查看天气观测和预报。

如需切换地图:点击带黑十字的绿色按钮放大地图;点击带横线的绿色按钮缩小地图;或者点击绿色箭头查看邻近地区的地图。


METAR-TAF: